createdAt,value
2023-03-06T00:00:29.610Z,21.21
2023-03-06T00:01:29.565Z,21.22
2023-03-06T00:02:29.493Z,21.25
2023-03-06T00:03:29.462Z,21.14
2023-03-06T00:04:29.391Z,21.13
2023-03-06T00:05:29.352Z,21.24
2023-03-06T00:06:29.245Z,21.21
2023-03-06T00:07:29.189Z,21.27
2023-03-06T00:08:29.137Z,21.19
2023-03-06T00:09:29.081Z,21.13
2023-03-06T00:10:28.994Z,21.11
2023-03-06T00:11:28.931Z,21.24
2023-03-06T00:12:28.857Z,21.19
2023-03-06T00:13:28.813Z,21.15
2023-03-06T00:14:28.746Z,21.20
2023-03-06T00:15:28.696Z,21.14
2023-03-06T00:16:28.704Z,21.08
2023-03-06T00:17:28.582Z,21.17
2023-03-06T00:18:28.510Z,21.17
2023-03-06T00:19:28.447Z,21.22
2023-03-06T00:20:28.399Z,21.19
2023-03-06T00:21:28.340Z,21.11
2023-03-06T00:22:28.282Z,21.04
2023-03-06T00:23:28.229Z,21.11
2023-03-06T00:24:28.192Z,21.17
2023-03-06T00:25:28.131Z,21.20
2023-03-06T00:26:28.053Z,21.19
2023-03-06T00:27:27.990Z,21.25
2023-03-06T00:28:27.927Z,21.19
2023-03-06T00:29:27.873Z,21.15
2023-03-06T00:30:27.798Z,21.15
2023-03-06T00:31:27.818Z,21.14
2023-03-06T00:32:27.736Z,21.22
2023-03-06T00:33:27.628Z,21.26
2023-03-06T00:34:27.557Z,21.09
2023-03-06T00:35:27.537Z,21.25
2023-03-06T00:36:27.452Z,21.25
2023-03-06T00:37:27.408Z,21.24
2023-03-06T00:38:27.350Z,21.27
2023-03-06T00:39:27.312Z,21.30
2023-03-06T00:40:27.251Z,21.24
2023-03-06T00:41:27.188Z,21.11
2023-03-06T00:42:27.130Z,21.09
2023-03-06T00:43:27.081Z,21.20
2023-03-06T00:44:27.025Z,21.22
2023-03-06T00:45:27.031Z,21.19
2023-03-06T00:46:26.903Z,21.12
2023-03-06T00:47:26.847Z,21.15
2023-03-06T00:48:26.790Z,21.25
2023-03-06T00:49:26.727Z,21.15
2023-03-06T00:50:26.694Z,21.26
2023-03-06T00:51:26.605Z,21.19
2023-03-06T00:52:26.550Z,21.20
2023-03-06T00:53:26.488Z,21.22
2023-03-06T00:54:26.405Z,21.26
2023-03-06T00:55:26.356Z,21.25
2023-03-06T00:56:26.285Z,21.19
2023-03-06T00:57:26.229Z,21.22
2023-03-06T00:58:26.152Z,21.25
2023-03-06T00:59:26.096Z,21.20
2023-03-06T01:00:26.142Z,21.11
2023-03-06T01:01:25.987Z,21.22
2023-03-06T01:02:25.965Z,21.17
2023-03-06T01:03:25.873Z,21.22
2023-03-06T01:04:25.785Z,21.24
2023-03-06T01:05:25.752Z,21.25
2023-03-06T01:06:25.664Z,21.20
2023-03-06T01:07:25.601Z,21.25
2023-03-06T01:08:25.552Z,21.20
2023-03-06T01:09:25.482Z,21.20
2023-03-06T01:10:25.420Z,21.19
2023-03-06T01:11:25.371Z,21.17
2023-03-06T03:56:16.046Z,21.15
2023-03-06T03:57:16.003Z,21.13
2023-03-06T03:58:15.974Z,20.99
2023-03-06T03:59:15.867Z,21.27
2023-03-06T04:00:15.840Z,21.13
2023-03-06T04:01:15.786Z,21.24
2023-03-06T04:02:15.790Z,21.16
2023-03-06T04:03:15.674Z,20.88
2023-03-06T04:04:15.631Z,20.92
2023-03-06T04:05:15.543Z,20.94
2023-03-06T04:06:15.499Z,21.13
2023-03-06T04:07:15.446Z,21.19
2023-03-06T04:08:15.369Z,21.16
2023-03-06T05:54:09.673Z,21.12
2023-03-06T05:56:09.558Z,21.02
2023-03-06T05:57:09.504Z,21.14
2023-03-06T05:59:09.391Z,21.08
2023-03-06T06:00:09.339Z,21.12
2023-03-06T06:01:09.291Z,21.05
2023-03-06T06:02:09.261Z,21.08
2023-03-06T06:03:09.283Z,21.08
2023-03-06T06:04:09.151Z,21.06
2023-03-06T06:05:11.292Z,21.10
2023-03-06T06:06:09.069Z,21.00
2023-03-06T06:07:08.997Z,21.08
2023-03-06T06:08:08.942Z,21.05
2023-03-06T06:09:08.894Z,21.05
2023-03-06T06:10:08.853Z,21.10
2023-03-06T06:11:08.816Z,21.13
2023-03-06T06:12:08.743Z,21.03
2023-03-06T06:13:08.709Z,21.08
2023-03-06T06:14:08.667Z,21.16
2023-03-06T06:15:08.659Z,21.02
2023-03-06T06:16:08.639Z,21.16
2023-03-06T06:17:08.535Z,21.05
2023-03-06T06:18:08.485Z,21.02
2023-03-06T06:19:08.434Z,21.00
2023-03-06T06:20:08.397Z,21.05
2023-03-06T06:21:08.333Z,21.04
2023-03-06T06:22:08.281Z,20.85
2023-03-06T06:23:08.216Z,21.02
2023-03-06T06:24:08.156Z,21.11
2023-03-06T06:25:08.103Z,21.02
2023-03-06T06:26:08.088Z,21.02
2023-03-06T06:28:07.977Z,20.92
2023-03-06T06:29:07.898Z,21.04
2023-03-06T06:30:07.857Z,20.94
2023-03-06T06:31:07.833Z,21.12
2023-03-06T06:32:07.762Z,21.07
2023-03-06T06:33:07.686Z,20.99
2023-03-06T06:34:07.649Z,20.89
2023-03-06T06:35:07.652Z,20.86
2023-03-06T06:36:07.552Z,20.99
2023-03-06T06:37:07.484Z,21.48
2023-03-06T06:38:07.485Z,21.54
2023-03-06T06:39:07.395Z,21.70
2023-03-06T06:40:07.331Z,22.02
2023-03-06T06:41:36.117Z,22.50
2023-03-06T06:42:28.644Z,22.64
2023-03-06T06:43:08.170Z,22.89
2023-03-06T06:44:08.374Z,23.06
2023-03-06T06:45:07.023Z,23.32
2023-03-06T06:46:34.015Z,23.36
2023-03-06T06:47:25.198Z,23.44
2023-03-06T06:48:07.919Z,23.58
2023-03-06T06:49:06.789Z,23.57
2023-03-06T06:50:06.726Z,24.02
2023-03-06T06:51:06.657Z,24.11
2023-03-06T06:52:06.613Z,24.11
2023-03-06T06:53:06.552Z,24.26
2023-03-06T06:54:06.569Z,24.37
2023-03-06T06:55:06.421Z,24.47
2023-03-06T06:56:06.445Z,24.56
2023-03-06T06:57:06.335Z,24.65
2023-03-06T06:58:06.255Z,24.82
2023-03-06T06:59:15.999Z,24.90
2023-03-06T07:00:07.131Z,25.04
2023-03-06T07:01:06.166Z,25.17
2023-03-06T07:02:06.027Z,25.25
2023-03-06T07:03:05.948Z,25.38
2023-03-06T07:04:05.942Z,25.44
2023-03-06T07:05:05.932Z,25.47
2023-03-06T07:06:05.776Z,25.52
2023-03-06T07:07:05.719Z,25.58
2023-03-06T07:08:05.661Z,25.64
2023-03-06T07:09:05.627Z,25.73
2023-03-06T07:10:05.674Z,25.74
2023-03-06T07:11:05.512Z,25.86
2023-03-06T07:12:05.495Z,25.91
2023-03-06T07:13:05.342Z,26.04
2023-03-06T07:23:05.578Z,26.91
2023-03-06T09:05:57.553Z,28.22
2023-03-06T09:06:57.533Z,28.34
2023-03-06T09:07:57.448Z,28.23
2023-03-06T09:08:57.361Z,28.05
2023-03-06T09:09:57.316Z,28.02
2023-03-06T09:10:57.217Z,27.98
2023-03-06T09:11:57.127Z,28.19
2023-03-06T09:12:57.116Z,28.10
2023-03-06T09:13:57.119Z,27.88
2023-03-06T09:14:56.912Z,27.61
2023-03-06T09:15:56.821Z,27.70
2023-03-06T09:16:56.818Z,27.70
2023-03-06T09:17:56.757Z,27.59
2023-03-06T09:18:56.615Z,27.73
2023-03-06T09:19:56.565Z,27.16
2023-03-06T09:20:56.509Z,27.42
2023-03-06T09:21:56.411Z,27.62
2023-03-06T09:22:56.394Z,27.63
2023-03-06T09:23:56.297Z,27.49
2023-03-06T09:24:56.178Z,27.28
2023-03-06T09:25:56.149Z,27.11
2023-03-06T09:26:56.044Z,27.01
2023-03-06T09:28:10.388Z,26.91
2023-03-06T09:28:56.922Z,26.85
2023-03-06T09:29:55.819Z,26.76
2023-03-06T09:30:55.837Z,26.69
2023-03-06T09:31:55.788Z,26.60
2023-03-06T09:32:55.589Z,26.99
2023-03-06T09:33:55.514Z,27.10
2023-03-06T09:34:55.457Z,26.57
2023-03-06T09:35:55.413Z,26.54
2023-03-06T09:41:54.960Z,26.17
2023-03-06T09:42:54.879Z,25.92
2023-03-06T09:43:54.801Z,25.88
2023-03-06T09:44:54.753Z,25.78
2023-03-06T09:45:54.658Z,25.87
2023-03-06T09:46:54.587Z,25.79
2023-03-06T09:47:54.514Z,25.66
2023-03-06T09:48:54.478Z,25.60
2023-03-06T09:49:54.402Z,25.42
2023-03-06T09:50:54.334Z,25.52
2023-03-06T09:51:54.297Z,25.50
2023-03-06T09:52:54.180Z,25.38
2023-03-06T09:53:54.072Z,25.19
2023-03-06T09:54:54.101Z,25.10
2023-03-06T09:55:53.950Z,25.19
2023-03-06T09:56:53.902Z,25.05
2023-03-06T09:57:53.823Z,25.01
2023-03-06T09:58:53.742Z,25.02
2023-03-06T09:59:53.688Z,24.89
2023-03-06T10:00:53.606Z,24.69
2023-03-06T10:01:53.593Z,24.68
2023-03-06T10:02:53.628Z,24.80
2023-03-06T10:03:53.405Z,24.70
2023-03-06T10:04:53.422Z,24.69
2023-03-06T10:05:53.248Z,24.50
2023-03-06T10:06:53.212Z,24.41
2023-03-06T10:07:53.145Z,24.57
2023-03-06T10:08:53.056Z,24.48
2023-03-06T10:09:53.086Z,24.39
2023-03-06T10:10:52.911Z,24.30
2023-03-06T10:11:52.848Z,24.14
2023-03-06T10:12:52.827Z,24.10
2023-03-06T10:13:52.737Z,24.20
2023-03-06T10:14:52.736Z,24.21
2023-03-06T10:15:52.680Z,24.10
2023-03-06T10:16:52.511Z,24.01
2023-03-06T10:17:52.444Z,23.95
2023-03-06T10:18:52.374Z,23.96
2023-03-06T10:19:52.339Z,23.86
2023-03-06T10:20:52.247Z,23.90
2023-03-06T10:21:52.182Z,23.89
2023-03-06T10:23:00.593Z,23.74
2023-03-06T10:23:53.078Z,23.63
2023-03-06T10:24:52.008Z,23.65
2023-03-06T10:25:51.942Z,23.74
2023-03-06T10:26:52.157Z,23.70
2023-03-06T10:27:51.788Z,23.68
2023-03-06T10:28:51.751Z,23.53
2023-03-06T10:30:02.296Z,23.52
2023-03-06T10:30:52.684Z,23.61
2023-03-06T10:31:51.543Z,23.56
2023-03-06T10:32:51.476Z,23.52
2023-03-06T10:33:51.412Z,23.44
2023-03-06T10:34:51.345Z,23.40
2023-03-06T10:35:51.333Z,23.42
2023-03-06T10:36:51.233Z,23.47
2023-03-06T10:37:51.152Z,23.52
2023-03-06T10:38:51.072Z,23.70
2023-03-06T10:39:51.018Z,23.70
2023-03-06T10:40:50.965Z,23.79
2023-03-06T10:41:50.846Z,23.97
2023-03-06T10:43:01.595Z,24.01
2023-03-06T10:43:51.807Z,24.02
2023-03-06T10:44:50.640Z,24.15
2023-03-06T10:45:50.582Z,24.38
2023-03-06T10:46:50.555Z,24.72
2023-03-06T10:47:50.408Z,25.16
2023-03-06T10:48:50.319Z,25.40
2023-03-06T10:49:50.240Z,26.07
2023-03-06T10:50:50.333Z,25.82
2023-03-06T10:51:50.221Z,25.76
2023-03-06T10:52:50.004Z,25.93
2023-03-06T10:53:49.954Z,26.09
2023-03-06T10:54:49.886Z,26.64
2023-03-06T10:55:49.789Z,26.50
2023-03-06T10:56:49.734Z,26.75
2023-03-06T10:57:49.643Z,26.81
2023-03-06T10:58:49.552Z,26.92
2023-03-06T10:59:49.473Z,26.99
2023-03-06T11:00:49.426Z,27.24
2023-03-06T11:01:49.368Z,27.11
2023-03-06T11:02:49.267Z,27.05
2023-03-06T11:03:49.189Z,26.97
2023-03-06T11:04:49.181Z,27.20
2023-03-06T11:05:49.037Z,27.22
2023-03-06T11:06:49.016Z,27.21
2023-03-06T11:07:48.916Z,27.18
2023-03-06T11:08:48.837Z,27.08
2023-03-06T11:09:49.707Z,27.03
2023-03-06T11:10:48.681Z,27.00
2023-03-06T11:11:48.654Z,27.03
2023-03-06T11:12:48.520Z,27.28
2023-03-06T11:13:48.494Z,27.21
2023-03-06T11:14:48.409Z,27.05
2023-03-06T11:15:48.347Z,26.95
2023-03-06T11:16:48.247Z,26.89
2023-03-06T11:17:48.169Z,26.80
2023-03-06T11:18:48.084Z,26.74
2023-03-06T11:19:48.019Z,26.73
2023-03-06T11:20:52.337Z,26.70
2023-03-06T11:21:48.961Z,26.72
2023-03-06T11:22:49.217Z,26.63
2023-03-06T11:23:47.718Z,26.63
2023-03-06T11:24:47.624Z,26.70
2023-03-06T11:26:47.513Z,26.63
2023-03-06T11:27:47.425Z,26.38
2023-03-06T11:28:47.465Z,26.63
2023-03-06T11:29:47.375Z,26.78
2023-03-06T11:30:47.222Z,26.79
2023-03-06T11:31:47.298Z,26.78
2023-03-06T11:32:47.115Z,26.80
2023-03-06T11:33:46.933Z,26.77
2023-03-06T11:34:49.170Z,26.77
2023-03-06T11:35:46.916Z,26.82
2023-03-06T11:36:46.780Z,26.68
2023-03-06T11:37:46.674Z,26.67
2023-03-06T11:38:46.620Z,26.77
2023-03-06T11:39:46.529Z,26.67
2023-03-06T11:40:46.394Z,26.68
2023-03-06T11:41:46.338Z,26.67
2023-03-06T11:42:46.245Z,26.49
2023-03-06T11:43:46.169Z,26.38
2023-03-06T11:44:46.098Z,26.24
2023-03-06T11:45:46.030Z,26.06
2023-03-06T11:46:46.046Z,26.12
2023-03-06T11:47:45.870Z,26.37
2023-03-06T11:48:45.792Z,26.20
2023-03-06T11:49:45.727Z,26.33
2023-03-06T11:50:45.635Z,26.28
2023-03-06T11:51:45.569Z,26.23
2023-03-06T11:52:45.479Z,26.11
2023-03-06T11:53:45.400Z,26.16
2023-03-06T11:54:45.333Z,26.20
2023-03-06T11:55:45.264Z,26.15
2023-03-06T11:56:45.200Z,26.12
2023-03-06T11:57:45.168Z,26.05
2023-03-06T11:58:45.034Z,25.96
2023-03-06T11:59:44.955Z,25.88
2023-03-06T12:00:44.969Z,25.75
2023-03-06T12:01:44.861Z,25.78
2023-03-06T12:02:44.740Z,25.79
2023-03-06T12:03:44.634Z,25.90
2023-03-06T12:04:44.579Z,26.16
2023-03-06T12:05:44.530Z,26.43
2023-03-06T12:06:44.428Z,26.56
2023-03-06T12:07:44.328Z,26.76
2023-03-06T12:08:44.278Z,26.82
2023-03-06T12:09:44.170Z,26.92
2023-03-06T12:10:46.293Z,26.92
2023-03-06T12:11:45.025Z,26.96
2023-03-06T12:12:43.935Z,26.99
2023-03-06T12:13:43.868Z,27.09
2023-03-06T12:14:43.798Z,26.95
2023-03-06T12:15:43.731Z,26.92
2023-03-06T12:16:43.680Z,26.87
2023-03-06T12:17:43.565Z,26.82
2023-03-06T12:18:43.501Z,26.74
2023-03-06T12:19:43.464Z,26.68
2023-03-06T12:20:43.342Z,26.66
2023-03-06T12:21:43.268Z,26.68
2023-03-06T12:22:53.281Z,26.57
2023-03-06T12:23:44.117Z,26.63
2023-03-06T12:24:43.069Z,26.52
2023-03-06T12:25:42.965Z,26.42
2023-03-06T12:26:42.898Z,26.44
2023-03-06T12:27:42.808Z,26.41
2023-03-06T12:28:43.418Z,26.30
2023-03-06T12:29:42.670Z,26.29
2023-03-06T12:30:42.589Z,26.22
2023-03-06T12:31:42.520Z,26.26
2023-03-06T12:32:42.609Z,26.25
2023-03-06T12:33:42.352Z,26.14
2023-03-06T12:34:42.269Z,26.13
2023-03-06T12:35:42.221Z,26.09
2023-03-06T12:36:42.130Z,26.02
2023-03-06T12:37:42.143Z,26.07
2023-03-06T12:38:41.965Z,26.02
2023-03-06T12:39:41.892Z,25.93
2023-03-06T12:40:41.795Z,25.96
2023-03-06T12:41:41.743Z,25.95
2023-03-06T12:42:41.662Z,25.87
2023-03-06T12:43:41.552Z,25.84
2023-03-06T12:44:41.511Z,25.80
2023-03-06T12:45:41.428Z,25.80
2023-03-06T12:46:41.318Z,25.86
2023-03-06T12:47:41.325Z,25.75
2023-03-06T12:48:41.345Z,25.71
2023-03-06T12:49:41.092Z,25.72
2023-03-06T12:50:41.025Z,25.66
2023-03-06T12:51:40.956Z,25.66
2023-03-06T12:52:40.903Z,25.60
2023-03-06T12:53:40.802Z,25.63
2023-03-06T12:54:40.738Z,25.58
2023-03-06T12:55:40.657Z,25.57
2023-03-06T12:56:40.562Z,25.57
2023-03-06T12:57:40.491Z,25.56
2023-03-06T12:58:40.429Z,25.48
2023-03-06T12:59:40.325Z,25.45
2023-03-06T13:00:40.258Z,25.47
2023-03-06T13:01:40.230Z,25.47
2023-03-06T13:02:40.139Z,25.43
2023-03-06T13:03:40.039Z,25.32
2023-03-06T13:04:40.032Z,25.42
2023-03-06T13:05:39.892Z,25.41
2023-03-06T13:06:49.870Z,25.32
2023-03-06T13:07:40.744Z,25.38
2023-03-06T13:08:39.664Z,25.38
2023-03-06T13:09:39.671Z,25.38
2023-03-06T13:10:39.530Z,25.26
2023-03-06T13:11:39.420Z,25.27
2023-03-06T13:12:39.360Z,25.21
2023-03-06T13:13:39.287Z,25.18
2023-03-06T13:14:42.349Z,25.23
2023-03-06T13:15:40.137Z,25.23
2023-03-06T13:16:39.057Z,25.19
2023-03-06T13:17:38.990Z,25.20
2023-03-06T13:18:38.923Z,25.14
2023-03-06T13:19:38.826Z,25.14
2023-03-06T13:20:38.921Z,25.08
2023-03-06T13:21:38.687Z,25.11
2023-03-06T13:22:38.634Z,25.09
2023-03-06T13:23:39.281Z,25.07
2023-03-06T13:24:38.464Z,25.08
2023-03-06T13:25:39.970Z,25.06
2023-03-06T13:26:38.311Z,25.02
2023-03-06T13:27:38.342Z,25.02
2023-03-06T13:28:38.148Z,24.98
2023-03-06T13:29:38.740Z,24.92
2023-03-06T13:30:38.069Z,24.97
2023-03-06T13:31:37.936Z,24.94
2023-03-06T13:32:37.935Z,24.95
2023-03-06T13:33:37.788Z,24.97
2023-03-06T13:34:37.724Z,24.97
2023-03-06T13:35:37.716Z,25.12
2023-03-06T13:36:39.791Z,25.09
2023-03-06T13:37:37.479Z,25.09
2023-03-06T13:38:37.440Z,25.16
2023-03-06T13:39:37.399Z,25.11
2023-03-06T13:40:37.252Z,25.20
2023-03-06T13:41:37.181Z,25.67
2023-03-06T13:42:37.117Z,25.92
2023-03-06T13:43:37.042Z,25.81
2023-03-06T13:44:36.966Z,25.88
2023-03-06T13:45:36.872Z,26.01
2023-03-06T13:46:36.862Z,26.04
2023-03-06T13:47:59.082Z,26.13
2023-03-06T13:48:44.595Z,26.10
2023-03-06T13:49:37.568Z,26.47
2023-03-06T13:50:36.498Z,26.32
2023-03-06T13:51:36.405Z,26.39
2023-03-06T13:52:36.338Z,26.41
2023-03-06T13:53:36.290Z,26.52
2023-03-06T13:54:36.183Z,26.53
2023-03-06T13:55:36.120Z,26.55
2023-03-06T13:56:36.048Z,26.62
2023-03-06T13:57:35.966Z,26.70
2023-03-06T13:58:35.885Z,26.74
2023-03-06T13:59:35.806Z,26.74
2023-03-06T14:00:35.739Z,26.76
2023-03-06T14:01:35.679Z,26.83
2023-03-06T14:02:35.598Z,27.11
2023-03-06T14:03:35.481Z,27.00
2023-03-06T14:04:35.415Z,27.05
2023-03-06T14:05:35.791Z,27.07
2023-03-06T14:06:35.265Z,27.00
2023-03-06T14:07:35.176Z,27.09
2023-03-06T14:08:35.212Z,27.22
2023-03-06T14:09:35.020Z,27.68
2023-03-06T14:10:34.944Z,27.37
2023-03-06T14:11:34.913Z,27.66
2023-03-06T14:12:34.796Z,27.47
2023-03-06T14:13:45.220Z,27.66
2023-03-06T14:14:35.630Z,27.36
2023-03-06T14:15:34.580Z,27.24
2023-03-06T14:16:48.652Z,27.23
2023-03-06T14:17:35.400Z,27.08
2023-03-06T14:18:34.308Z,27.06
2023-03-06T14:19:34.238Z,27.04
2023-03-06T14:20:34.168Z,27.11
2023-03-06T14:21:34.071Z,27.14
2023-03-06T14:22:34.022Z,27.11
2023-03-06T14:23:33.925Z,27.35
2023-03-06T14:24:33.885Z,27.58
2023-03-06T14:25:33.770Z,27.69
2023-03-06T14:26:33.753Z,27.73
2023-03-06T14:27:33.642Z,27.72
2023-03-06T14:28:33.634Z,27.70
2023-03-06T14:29:33.501Z,27.61
2023-03-06T14:30:33.444Z,27.81
2023-03-06T14:31:33.448Z,26.69
2023-03-06T14:32:33.300Z,27.60
2023-03-06T14:33:33.204Z,27.64
2023-03-06T14:34:33.123Z,27.52
2023-03-06T14:35:33.081Z,27.57
2023-03-06T14:36:32.941Z,27.49
2023-03-06T14:37:32.867Z,27.48
2023-03-06T14:38:32.841Z,27.42
2023-03-06T14:39:32.745Z,27.29
2023-03-06T14:40:32.659Z,27.38
2023-03-06T14:41:32.607Z,27.27
2023-03-06T14:42:32.701Z,27.12
2023-03-06T14:43:32.473Z,27.15
2023-03-06T14:44:32.423Z,27.18
2023-03-06T14:45:32.334Z,27.25
2023-03-06T14:46:32.262Z,27.15
2023-03-06T14:47:32.189Z,27.03
2023-03-06T14:48:32.112Z,26.97
2023-03-06T14:49:32.120Z,26.76
2023-03-06T14:50:31.938Z,26.86
2023-03-06T14:51:31.943Z,26.83
2023-03-06T14:52:31.811Z,26.91
2023-03-06T14:53:31.718Z,26.93
2023-03-06T14:54:31.704Z,27.00
2023-03-06T14:55:31.575Z,27.06
2023-03-06T14:56:31.516Z,26.97
2023-03-06T14:57:31.420Z,26.91
2023-03-06T14:58:31.340Z,26.98
2023-03-06T14:59:31.310Z,27.01
2023-03-06T15:00:31.250Z,26.94
2023-03-06T15:01:31.162Z,26.98
2023-03-06T15:02:31.043Z,26.91
2023-03-06T15:03:33.457Z,26.91
2023-03-06T15:04:30.942Z,26.95
2023-03-06T15:05:30.870Z,26.86
2023-03-06T15:06:30.822Z,26.97
2023-03-06T15:07:30.679Z,26.47
2023-03-06T15:08:30.617Z,26.40
2023-03-06T15:09:30.634Z,26.40
2023-03-06T15:10:30.470Z,26.66
2023-03-06T15:11:30.370Z,26.73
2023-03-06T15:12:30.299Z,26.72
2023-03-06T15:13:30.235Z,26.72
2023-03-06T15:14:30.200Z,26.60
2023-03-06T15:15:30.127Z,26.56
2023-03-06T15:16:30.586Z,26.62
2023-03-06T15:17:30.020Z,26.79
2023-03-06T15:41:28.235Z,25.17
2023-03-06T15:42:28.190Z,25.26
2023-03-06T15:43:28.080Z,25.32
2023-03-06T15:44:28.029Z,25.31
2023-03-06T15:45:27.992Z,24.96
2023-03-06T15:46:27.877Z,24.98
2023-03-06T15:47:27.946Z,24.89
2023-03-06T15:48:27.707Z,24.96
2023-03-06T15:49:27.634Z,25.04
2023-03-06T15:50:27.579Z,24.92
2023-03-06T15:51:27.489Z,24.90
2023-03-06T15:52:27.438Z,24.72
2023-03-06T15:53:27.375Z,24.77
2023-03-06T15:54:27.273Z,24.86
2023-03-06T15:55:27.213Z,24.83
2023-03-06T15:56:27.141Z,24.69
2023-03-06T15:57:27.071Z,24.53
2023-03-06T15:58:26.993Z,24.59
2023-03-06T15:59:26.925Z,24.63
2023-03-06T16:00:28.296Z,24.65
2023-03-06T16:01:26.942Z,24.60
2023-03-06T16:02:26.721Z,24.49
2023-03-06T16:03:26.652Z,24.39
2023-03-06T16:04:26.619Z,24.44
2023-03-06T16:05:26.539Z,24.52
2023-03-06T16:06:26.453Z,24.45
2023-03-06T16:07:28.050Z,24.38
2023-03-06T16:08:26.307Z,24.20
2023-03-06T16:09:26.240Z,24.30
2023-03-06T16:10:26.182Z,24.42
2023-03-06T16:11:32.437Z,24.29
2023-03-06T16:13:25.978Z,24.20
2023-03-06T16:14:25.929Z,24.29
2023-03-06T16:15:25.829Z,24.21
2023-03-06T16:16:25.794Z,24.18
2023-03-06T16:17:25.680Z,24.22
2023-03-06T16:18:25.613Z,24.09
2023-03-06T16:19:27.197Z,24.11
2023-03-06T16:20:25.470Z,24.21
2023-03-06T16:21:25.389Z,24.06
2023-03-06T16:22:25.315Z,24.09
2023-03-06T16:23:25.268Z,24.15
2023-03-06T16:24:25.165Z,24.06
2023-03-06T16:25:25.094Z,24.06
2023-03-06T16:26:25.038Z,24.04
2023-03-06T16:27:24.941Z,24.03
2023-03-06T16:28:24.896Z,24.01
2023-03-06T16:29:24.812Z,23.92
2023-03-06T17:07:22.139Z,23.90
2023-03-06T17:08:22.067Z,23.89
2023-03-06T17:09:22.001Z,23.90
2023-03-06T17:10:21.925Z,23.93
2023-03-06T17:11:21.843Z,23.90
2023-03-06T17:12:21.764Z,23.89
2023-03-06T17:13:21.704Z,23.97
2023-03-06T17:14:21.638Z,23.93
2023-03-06T17:15:21.576Z,23.94
2023-03-06T17:16:21.617Z,23.96
2023-03-06T17:17:21.429Z,23.95
2023-03-06T17:18:21.357Z,23.97
2023-03-06T17:19:21.293Z,23.96
2023-03-06T17:20:21.276Z,23.88
2023-03-06T17:21:21.158Z,23.96
2023-03-06T17:22:21.083Z,23.99
2023-03-06T17:23:21.028Z,24.01
2023-03-06T17:24:20.937Z,24.03
2023-03-06T17:25:20.876Z,23.97
2023-03-06T17:26:20.807Z,23.99
2023-03-06T17:27:20.748Z,24.00
2023-03-06T17:28:20.698Z,24.02
2023-03-06T17:29:20.614Z,23.97
2023-03-06T17:30:20.560Z,23.99
2023-03-06T17:31:20.565Z,24.05
2023-03-06T17:32:20.508Z,24.01
2023-03-06T17:33:20.378Z,24.06
2023-03-06T17:34:20.316Z,24.02
2023-03-06T17:35:20.318Z,24.03
2023-03-06T17:36:20.191Z,24.02
2023-03-06T17:37:20.154Z,24.00
2023-03-06T17:38:20.055Z,23.97
2023-03-06T17:39:19.985Z,24.03
2023-03-06T18:39:16.011Z,23.98
2023-03-06T18:41:15.876Z,23.98
2023-03-06T18:42:15.803Z,24.01
2023-03-06T18:43:15.770Z,23.96
2023-03-06T18:44:15.671Z,23.97
2023-03-06T18:45:15.620Z,23.97
2023-03-06T18:46:15.553Z,23.95
2023-03-06T18:47:15.496Z,23.99
2023-03-06T18:48:15.437Z,24.00
2023-03-06T18:49:15.369Z,23.97
2023-03-06T18:50:15.283Z,24.00
2023-03-06T18:51:15.217Z,23.93
2023-03-06T18:52:15.145Z,23.96
2023-03-06T18:53:15.084Z,24.00
2023-03-06T18:54:15.077Z,23.96
2023-03-06T18:55:14.947Z,23.96
2023-03-06T18:56:14.877Z,23.94
2023-03-06T18:57:14.832Z,23.94
2023-03-06T18:58:14.746Z,23.90
2023-03-06T18:59:15.422Z,23.90
2023-03-06T19:00:14.617Z,23.91
2023-03-06T19:01:14.579Z,23.94
2023-03-06T19:02:14.470Z,23.96
2023-03-06T19:03:14.428Z,23.96
2023-03-06T19:04:14.373Z,23.96
2023-03-06T19:05:14.289Z,23.96
2023-03-06T19:06:14.222Z,23.90
2023-03-06T19:07:14.171Z,23.89
2023-03-06T19:08:14.099Z,23.88
2023-03-06T19:09:14.038Z,23.85
2023-03-06T19:10:13.973Z,23.87
2023-03-06T19:11:13.937Z,23.85
2023-03-06T19:12:13.870Z,23.87
2023-03-06T19:13:13.832Z,23.88
2023-03-06T19:14:13.763Z,23.90
2023-03-06T19:15:13.697Z,23.87
2023-03-06T19:16:13.639Z,23.90
2023-03-06T19:17:13.565Z,23.84
2023-03-06T19:18:13.502Z,23.87
2023-03-06T19:19:13.448Z,23.88
2023-03-06T19:20:13.390Z,23.87
2023-03-06T19:21:13.353Z,23.84
2023-03-06T19:22:13.295Z,23.88
2023-03-06T19:23:13.246Z,23.88
2023-03-06T19:24:13.176Z,23.84
2023-03-06T19:25:13.131Z,23.87
2023-03-06T19:26:13.048Z,23.85
2023-03-06T19:27:13.001Z,23.87
2023-03-06T19:28:12.942Z,23.82
2023-03-06T19:29:12.875Z,23.87
2023-03-06T19:30:12.807Z,23.82
2023-03-06T19:31:12.756Z,23.85
2023-03-06T19:32:12.805Z,23.79
2023-03-06T19:33:12.655Z,23.82
2023-03-06T19:34:12.586Z,23.87
2023-03-06T19:35:12.513Z,23.81
2023-03-06T19:36:12.460Z,23.88
2023-03-06T19:37:12.408Z,23.82
2023-03-06T19:38:12.341Z,23.82
2023-03-06T19:39:12.290Z,23.83
2023-03-06T19:40:12.215Z,23.82
2023-03-06T19:41:12.149Z,23.81
2023-03-06T19:42:13.867Z,23.82
2023-03-06T19:43:12.021Z,23.79
2023-03-06T19:44:11.957Z,23.81
2023-03-06T19:45:11.899Z,23.82
2023-03-06T19:46:11.911Z,23.79
2023-03-06T19:47:11.744Z,23.73
2023-03-06T19:48:11.678Z,23.81
2023-03-06T19:49:11.765Z,23.78
2023-03-06T19:50:11.563Z,23.79
2023-03-06T19:51:11.492Z,23.76
2023-03-06T19:52:11.419Z,23.76
2023-03-06T19:53:11.360Z,23.81
2023-03-06T19:54:11.304Z,23.79
2023-03-06T19:55:11.238Z,23.76
2023-03-06T19:56:11.161Z,23.76
2023-03-06T19:57:11.105Z,23.76
2023-03-06T19:58:11.044Z,23.75
2023-03-06T19:59:10.983Z,23.76
2023-03-06T20:00:10.906Z,23.75
2023-03-06T20:01:10.866Z,23.73
2023-03-06T20:02:10.773Z,23.73
2023-03-06T20:03:10.712Z,23.74
2023-03-06T20:04:10.715Z,23.76
2023-03-06T20:05:10.627Z,23.70
2023-03-06T20:06:10.536Z,23.76
2023-03-06T20:07:10.545Z,23.78
2023-03-06T20:08:10.413Z,23.73
2023-03-06T20:09:10.365Z,23.79
2023-03-06T20:10:10.327Z,23.72
2023-03-06T20:11:10.241Z,23.76
2023-03-06T20:12:10.168Z,23.71
2023-03-06T20:13:10.123Z,23.76
2023-03-06T20:14:10.075Z,23.70
2023-03-06T20:15:10.008Z,23.76
2023-03-06T20:16:10.081Z,23.71
2023-03-06T22:39:00.995Z,23.47
2023-03-06T22:40:00.916Z,23.41
2023-03-06T22:41:00.853Z,23.43
2023-03-06T22:42:00.799Z,23.45
2023-03-06T22:43:00.714Z,23.39
2023-03-06T22:44:00.674Z,23.37
2023-03-06T22:45:00.599Z,23.40
2023-03-06T22:46:00.553Z,23.40
2023-03-06T22:47:00.459Z,23.41
2023-03-06T22:48:10.474Z,23.43
2023-03-06T22:50:00.262Z,23.39
2023-03-06T22:51:00.202Z,23.45
2023-03-06T22:52:00.133Z,23.39
2023-03-06T22:53:00.090Z,23.41
2023-03-06T22:54:00.026Z,23.39
2023-03-06T22:54:59.962Z,23.42
2023-03-06T22:55:59.888Z,23.38
